Time;durP1;ratioP1;P1;durP2;ratioP2;P2;SDS_P1;SDS_P2;PMS_P1;PMS_P2;Temp;Humidity;BMP_temperature;BMP_pressure;BME280_temperature;BME280_humidity;BME280_pressure;Samples;Min_cycle;Max_cycle;Signal;HPM_P1;HPM_P2
2023/03/21 10:11:19;;;;;;;13.20;12.50;;;18.80;82.70;;;;;;6186950;22;1209407;-77
2023/03/21 10:13:52;;;;;;;13.23;12.60;;;21.80;72.70;;;;;;6193647;23;20536;-78
2023/03/21 10:16:24;;;;;;;14.23;13.30;;;21.50;72.80;;;;;;6193806;23;20412;-78
2023/03/21 10:18:51;;;;;;;12.87;12.30;;;21.70;72.80;;;;;;6193695;23;20389;-79
2023/03/21 10:21:22;;;;;;;12.93;12.37;;;21.40;72.00;;;;;;6193866;23;20736;-77
2023/03/21 10:23:50;;;;;;;13.23;12.63;;;20.90;73.40;;;;;;6193406;23;20390;-77
2023/03/21 10:26:21;;;;;;;13.27;12.77;;;21.00;73.20;;;;;;6193504;23;20449;-77
2023/03/21 10:28:48;;;;;;;13.53;12.93;;;20.90;73.10;;;;;;6193376;23;20530;-76
2023/03/21 10:31:19;;;;;;;13.70;13.10;;;20.90;73.30;;;;;;6193516;23;20496;-76
2023/03/21 10:33:47;;;;;;;13.40;12.80;;;21.20;73.40;;;;;;6193588;23;20393;-76
2023/03/21 10:36:18;;;;;;;13.20;12.40;;;21.50;71.60;;;;;;6193279;23;20404;-77
2023/03/21 10:38:46;;;;;;;12.70;12.10;;;22.60;69.30;;;;;;6193426;23;20397;-77
2023/03/21 10:41:13;;;;;;;13.43;12.83;;;23.40;67.50;;;;;;6193242;23;20405;-77
2023/03/21 10:43:41;;;;;;;13.67;12.97;;;24.60;63.70;;;;;;6193104;23;20732;-77
2023/03/21 10:46:12;;;;;;;13.67;13.00;;;24.30;62.30;;;;;;6192693;23;20897;-77
2023/03/21 10:48:44;;;;;;;13.90;13.40;;;24.20;61.60;;;;;;6192881;23;20455;-77
2023/03/21 10:51:18;;;;;;;12.90;12.40;;;24.20;62.10;;;;;;6193225;23;20484;-77
2023/03/21 10:53:50;;;;;;;12.97;12.37;;;24.10;60.20;;;;;;6193184;23;20421;-79
2023/03/21 10:56:18;;;;;;;14.10;13.40;;;23.80;60.40;;;;;;6192761;23;20943;-77
2023/03/21 10:58:47;;;;;;;12.70;12.00;;;24.50;59.50;;;;;;6193205;23;20409;-78
2023/03/21 11:01:29;;;;;;;12.80;12.30;;;23.60;60.70;;;;;;6193180;23;20413;-77
2023/03/21 11:03:59;;;;;;;12.50;12.10;;;23.80;61.60;;;;;;6192929;23;20440;-77
2023/03/21 11:06:30;;;;;;;13.77;13.10;;;23.70;59.90;;;;;;6193082;23;20500;-77
2023/03/21 11:09:02;;;;;;;13.47;12.73;;;23.00;61.00;;;;;;6173822;23;20496;-77
2023/03/21 11:11:35;;;;;;;13.03;12.50;;;22.60;62.90;;;;;;6157859;23;20976;-77
2023/03/21 11:14:05;;;;;;;13.43;12.83;;;22.90;62.00;;;;;;6156653;23;20391;-77
2023/03/21 11:16:38;;;;;;;14.07;13.27;;;22.70;63.10;;;;;;6156086;23;20441;-77
2023/03/21 11:19:14;;;;;;;13.70;12.97;;;22.50;63.70;;;;;;6156657;23;20392;-76
2023/03/21 11:21:42;;;;;;;12.60;12.10;;;21.70;65.00;;;;;;6156561;23;20395;-77
2023/03/21 11:24:13;;;;;;;12.40;11.97;;;21.90;64.60;;;;;;6156327;23;20451;-77
2023/03/21 11:26:42;;;;;;;12.50;12.10;;;22.70;62.50;;;;;;6156540;23;20399;-77
2023/03/21 11:29:22;;;;;;;12.17;11.67;;;21.90;62.70;;;;;;6156370;23;20516;-77
2023/03/21 11:31:49;;;;;;;12.30;11.80;;;21.70;63.10;;;;;;6156500;23;20409;-75
2023/03/21 11:34:26;;;;;;;28.47;11.83;;;21.10;64.70;;;;;;6156496;23;20505;-75
2023/03/21 11:37:00;;;;;;;11.23;10.83;;;21.20;63.10;;;;;;6156475;23;20390;-76
2023/03/21 11:39:32;;;;;;;11.33;10.93;;;21.40;62.90;;;;;;6156401;23;20386;-77
2023/03/21 11:41:59;;;;;;;12.17;11.67;;;21.70;61.90;;;;;;6156692;23;20709;-76
2023/03/21 11:44:30;;;;;;;11.60;11.10;;;21.50;62.50;;;;;;6156326;23;20434;-76
2023/03/21 11:46:57;;;;;;;11.37;10.97;;;21.20;62.70;;;;;;6156607;23;20399;-76
2023/03/21 11:49:25;;;;;;;12.57;12.07;;;21.20;60.50;;;;;;6155753;23;20450;-76
2023/03/21 11:52:12;;;;;;;11.93;11.53;;;21.50;59.80;;;;;;6156237;23;20480;-76
2023/03/21 11:54:55;;;;;;;11.50;10.97;;;21.30;60.50;;;;;;6151970;23;20427;-76
2023/03/21 11:57:32;;;;;;;11.53;11.13;;;21.30;59.10;;;;;;6156282;23;20453;-77
2023/03/21 12:00:12;;;;;;;11.20;10.80;;;21.40;58.50;;;;;;6156195;23;20398;-77
2023/03/21 12:03:04;;;;;;;11.17;10.77;;;20.90;58.60;;;;;;6156210;23;20394;-76
2023/03/21 12:05:34;;;;;;;12.27;11.67;;;20.70;59.20;;;;;;6156188;23;20402;-77
2023/03/21 12:08:07;;;;;;;11.00;10.60;;;20.50;60.20;;;;;;6155989;23;20485;-76
2023/03/21 12:10:42;;;;;;;11.70;11.20;;;20.70;60.70;;;;;;6155368;23;20454;-76
2023/03/21 12:13:36;;;;;;;10.03;9.63;;;21.00;60.10;;;;;;6156087;23;20402;-76
2023/03/21 12:16:12;;;;;;;10.60;10.20;;;21.10;60.50;;;;;;6156028;23;20391;-76
2023/03/21 12:18:55;;;;;;;10.10;9.80;;;21.10;59.00;;;;;;6155677;23;20399;-76
2023/03/21 12:21:30;;;;;;;10.70;10.23;;;21.00;58.90;;;;;;6155896;23;20837;-77
2023/03/21 12:24:06;;;;;;;11.20;10.60;;;20.90;59.50;;;;;;6155296;23;20402;-75
2023/03/21 12:26:38;;;;;;;11.93;11.33;;;20.90;63.00;;;;;;6155882;23;20407;-77
2023/03/21 12:29:29;;;;;;;12.40;11.70;;;21.10;64.90;;;;;;6155867;23;20406;-76
2023/03/21 12:32:06;;;;;;;12.20;11.60;;;20.80;67.50;;;;;;6150941;23;20425;-76
2023/03/21 12:34:54;;;;;;;12.00;11.40;;;20.80;68.20;;;;;;6155920;23;20394;-76
2023/03/21 12:37:33;;;;;;;12.70;12.10;;;20.60;68.10;;;;;;6155816;23;20395;-76
2023/03/21 12:40:09;;;;;;;13.20;12.37;;;20.80;68.80;;;;;;6155786;23;20432;-76
2023/03/21 12:43:02;;;;;;;12.20;11.43;;;20.80;68.60;;;;;;6155490;23;20399;-76
2023/03/21 12:45:34;;;;;;;14.03;12.63;;;20.70;68.90;;;;;;6155864;23;20470;-75
2023/03/21 12:48:17;;;;;;;13.03;12.13;;;20.40;68.40;;;;;;6155582;23;20403;-75
2023/03/21 12:50:45;;;;;;;13.37;12.57;;;19.80;70.40;;;;;;6155737;23;20431;-74
2023/03/21 12:53:40;;;;;;;12.47;11.47;;;19.80;70.60;;;;;;6155525;23;20411;-75
2023/03/21 12:56:11;;;;;;;12.30;11.80;;;19.70;70.80;;;;;;6154746;23;20421;-75
2023/03/21 12:58:45;;;;;;;12.90;12.20;;;19.30;71.60;;;;;;6155628;23;20394;-75
2023/03/21 13:01:19;;;;;;;12.30;11.80;;;19.30;72.20;;;;;;6155264;23;20402;-76
2023/03/21 13:03:54;;;;;;;12.63;11.70;;;19.50;71.70;;;;;;6155552;23;20394;-74
2023/03/21 13:06:26;;;;;;;12.40;11.90;;;19.60;73.30;;;;;;6155564;23;20402;-75
2023/03/21 13:08:59;;;;;;;12.47;11.73;;;20.20;71.70;;;;;;6155359;23;20437;-75
2023/03/21 13:11:29;;;;;;;12.90;12.10;;;20.40;69.30;;;;;;6154083;23;20454;-74
2023/03/21 13:14:02;;;;;;;12.57;11.73;;;20.50;69.90;;;;;;6155432;23;20414;-76
2023/03/21 13:16:35;;;;;;;12.10;11.60;;;20.70;69.50;;;;;;6155163;23;20859;-76
2023/03/21 13:19:13;;;;;;;12.20;11.40;;;21.00;69.00;;;;;;6155106;23;20962;-76
2023/03/21 13:21:51;;;;;;;12.93;12.07;;;21.40;66.40;;;;;;6155426;23;20403;-76
2023/03/21 13:24:25;;;;;;;12.80;12.10;;;22.10;64.20;;;;;;6154898;23;20391;-76
2023/03/21 13:27:00;;;;;;;13.57;12.90;;;22.20;63.30;;;;;;6155067;23;20886;-75
2023/03/21 13:29:29;;;;;;;12.40;11.80;;;21.80;62.70;;;;;;6154629;23;20394;-77
2023/03/21 13:32:07;;;;;;;12.27;11.57;;;21.60;64.00;;;;;;6155067;23;20506;-77
2023/03/21 13:34:40;;;;;;;12.27;11.77;;;21.20;65.60;;;;;;6155275;23;20403;-74
2023/03/21 13:37:18;;;;;;;12.83;11.73;;;20.90;65.30;;;;;;6155271;23;20395;-75
2023/03/21 13:39:49;;;;;;;12.63;11.83;;;21.00;66.30;;;;;;6155119;23;20482;-75
2023/03/21 13:42:46;;;;;;;13.60;12.80;;;20.50;68.00;;;;;;6155119;23;20397;-76
2023/03/21 13:45:25;;;;;;;12.27;11.77;;;20.10;70.10;;;;;;6133416;23;20414;-74
2023/03/21 13:47:58;;;;;;;13.43;12.50;;;20.10;69.40;;;;;;6155246;23;20391;-75
2023/03/21 13:50:33;;;;;;;12.70;12.00;;;19.80;70.20;;;;;;6155230;23;20434;-75
2023/03/21 13:53:24;;;;;;;12.90;12.10;;;19.70;70.30;;;;;;6155198;23;20398;-74
2023/03/21 13:56:12;;;;;;;12.43;11.80;;;19.50;71.50;;;;;;6155137;23;20391;-75
2023/03/21 13:58:50;;;;;;;12.90;12.20;;;19.20;70.30;;;;;;6154734;23;20881;-77
2023/03/21 14:01:26;;;;;;;11.43;10.93;;;19.50;70.90;;;;;;6155252;23;20398;-74
2023/03/21 14:04:00;;;;;;;11.90;11.33;;;20.00;69.80;;;;;;6155198;23;20402;-77
2023/03/21 14:06:42;;;;;;;12.20;11.60;;;20.10;70.00;;;;;;6154827;23;20397;-75
2023/03/21 14:09:15;;;;;;;11.63;11.13;;;19.80;70.10;;;;;;6155046;23;20458;-75
2023/03/21 14:11:52;;;;;;;11.97;11.37;;;19.60;70.90;;;;;;6154910;23;20431;-75
2023/03/21 14:14:21;;;;;;;11.63;11.13;;;19.20;71.30;;;;;;6155182;23;20390;-76
2023/03/21 14:16:48;;;;;;;11.67;11.07;;;19.40;72.80;;;;;;6155096;23;20402;-76
2023/03/21 14:19:15;;;;;;;11.83;11.23;;;19.70;73.30;;;;;;6155064;23;20465;-76
2023/03/21 14:21:50;;;;;;;12.53;11.93;;;19.60;74.00;;;;;;6155057;23;20407;-76
2023/03/21 14:24:18;;;;;;;12.67;12.00;;;19.80;73.80;;;;;;6155090;23;20401;-76
2023/03/21 14:26:47;;;;;;;12.33;11.73;;;19.50;73.70;;;;;;6154983;23;20439;-75
2023/03/21 14:29:20;;;;;;;13.20;12.10;;;19.50;74.40;;;;;;6154584;23;20402;-75
2023/03/21 14:31:47;;;;;;;12.13;11.33;;;19.40;74.70;;;;;;6154753;23;20442;-76
2023/03/21 14:34:15;;;;;;;13.70;12.70;;;19.40;74.70;;;;;;6154883;23;20481;-76
2023/03/21 14:36:43;;;;;;;12.20;11.60;;;19.40;74.20;;;;;;6155010;23;20407;-73
2023/03/21 14:39:16;;;;;;;12.07;11.37;;;19.30;74.40;;;;;;6154893;23;20422;-76
2023/03/21 14:41:46;;;;;;;12.10;11.50;;;19.40;74.70;;;;;;6155098;23;20391;-76
2023/03/21 14:44:26;;;;;;;11.97;11.40;;;19.60;74.50;;;;;;6154765;23;20399;-75
2023/03/21 14:46:59;;;;;;;13.07;12.47;;;19.50;73.80;;;;;;6156407;23;20398;-76
2023/03/21 14:49:28;;;;;;;12.30;11.60;;;19.50;73.20;;;;;;6156893;23;20395;-76
2023/03/21 14:51:56;;;;;;;12.30;11.70;;;19.60;73.40;;;;;;6156666;23;20505;-76
2023/03/21 14:54:26;;;;;;;11.80;11.20;;;19.50;73.10;;;;;;6156800;23;20418;-76
2023/03/21 14:57:00;;;;;;;12.57;11.90;;;19.10;74.00;;;;;;6156452;23;20449;-76
2023/03/21 14:59:32;;;;;;;13.57;12.87;;;19.10;74.30;;;;;;6156761;23;20398;-75
2023/03/21 15:02:04;;;;;;;12.90;12.20;;;19.00;74.90;;;;;;6156391;23;20394;-75
2023/03/21 15:04:31;;;;;;;13.30;12.60;;;18.80;75.60;;;;;;6156361;23;20398;-76
2023/03/21 15:07:03;;;;;;;13.03;12.33;;;18.60;75.80;;;;;;6156529;23;20444;-76
2023/03/21 15:09:33;;;;;;;11.87;11.27;;;18.80;76.00;;;;;;6156354;23;20795;-76
2023/03/21 15:12:01;;;;;;;11.83;11.27;;;18.70;75.60;;;;;;6156719;23;20514;-76
2023/03/21 15:14:31;;;;;;;12.47;11.67;;;18.70;76.00;;;;;;6156663;23;20763;-75
2023/03/21 15:17:15;;;;;;;12.53;11.77;;;19.00;75.60;;;;;;6156682;23;20781;-75
2023/03/21 15:19:42;;;;;;;11.30;10.80;;;19.00;74.60;;;;;;6156291;23;20410;-75
2023/03/21 15:22:16;;;;;;;12.87;12.07;;;18.60;75.60;;;;;;6156611;23;20614;-76
2023/03/21 15:24:49;;;;;;;12.27;11.40;;;18.50;75.70;;;;;;6156527;23;20489;-75
2023/03/21 15:27:17;;;;;;;11.73;11.20;;;18.30;75.10;;;;;;6156802;23;20395;-75
2023/03/21 15:29:45;;;;;;;12.10;11.47;;;18.30;75.10;;;;;;6156480;23;20421;-76
2023/03/21 15:32:19;;;;;;;11.80;11.17;;;18.30;75.10;;;;;;6156137;23;20449;-76
2023/03/21 15:34:46;;;;;;;11.80;11.10;;;18.30;76.60;;;;;;6156710;23;20394;-76
2023/03/21 15:37:21;;;;;;;11.60;11.10;;;18.10;77.00;;;;;;6156988;23;20407;-76
2023/03/21 15:39:51;;;;;;;11.87;11.10;;;18.00;77.30;;;;;;6156328;23;20391;-76
2023/03/21 15:42:27;;;;;;;12.83;11.70;;;18.00;78.50;;;;;;6156521;23;20411;-76
2023/03/21 15:44:57;;;;;;;12.03;11.13;;;18.10;77.60;;;;;;6156344;23;20406;-76
2023/03/21 15:47:39;;;;;;;12.40;11.60;;;18.00;78.50;;;;;;6156264;23;20412;-75
2023/03/21 15:50:10;;;;;;;11.77;11.03;;;17.80;79.10;;;;;;6155779;23;20975;-74
2023/03/21 15:52:37;;;;;;;12.33;11.60;;;17.60;79.50;;;;;;6156229;23;20395;-76
2023/03/21 15:55:20;;;;;;;11.07;10.33;;;17.50;81.10;;;;;;6156352;23;20441;-76
2023/03/21 15:57:48;;;;;;;12.57;11.70;;;17.30;82.20;;;;;;6156280;23;20395;-75
2023/03/21 16:00:23;;;;;;;11.30;10.43;;;17.30;83.90;;;;;;6156241;23;20446;-75
2023/03/21 16:02:56;;;;;;;11.07;10.47;;;17.10;84.90;;;;;;6156263;23;20449;-76
2023/03/21 16:05:26;;;;;;;11.80;11.20;;;17.00;86.80;;;;;;6156104;23;20391;-76
2023/03/21 16:07:53;;;;;;;12.47;11.70;;;16.90;88.30;;;;;;6155555;23;20426;-76
2023/03/21 16:10:28;;;;;;;11.90;11.30;;;16.90;89.40;;;;;;6155632;23;20533;-75
2023/03/21 16:12:55;;;;;;;12.63;11.70;;;16.80;89.60;;;;;;6156033;23;20788;-76
2023/03/21 16:15:23;;;;;;;11.50;10.90;;;16.70;90.20;;;;;;6155991;23;20422;-76
2023/03/21 16:17:53;;;;;;;11.90;11.30;;;16.60;90.50;;;;;;6156035;23;20473;-76
2023/03/21 16:20:22;;;;;;;11.83;11.27;;;16.50;90.60;;;;;;6155867;23;20423;-74
2023/03/21 16:22:49;;;;;;;11.33;10.80;;;16.40;90.90;;;;;;6155820;23;20421;-75
2023/03/21 16:25:16;;;;;;;11.70;11.00;;;16.30;91.50;;;;;;6155800;23;20406;-76
2023/03/21 16:27:45;;;;;;;11.77;11.27;;;16.30;91.90;;;;;;6155666;23;20438;-75
2023/03/21 16:30:14;;;;;;;12.37;11.57;;;16.30;91.90;;;;;;6155279;23;20402;-76
2023/03/21 16:32:40;;;;;;;12.63;11.60;;;16.30;92.30;;;;;;6155728;23;20414;-75
2023/03/21 16:35:08;;;;;;;11.43;10.77;;;16.20;92.60;;;;;;6155809;23;20418;-76
2023/03/21 16:37:34;;;;;;;11.40;10.70;;;16.10;92.90;;;;;;6155592;23;20485;-75
2023/03/21 16:40:04;;;;;;;12.37;11.50;;;16.10;92.90;;;;;;6155705;23;20414;-76
2023/03/21 16:42:31;;;;;;;12.20;11.30;;;16.10;92.90;;;;;;6155676;23;20481;-74
2023/03/21 16:44:59;;;;;;;11.97;11.13;;;16.00;93.20;;;;;;6155591;23;20411;-76
2023/03/21 16:47:25;;;;;;;10.93;10.43;;;15.90;93.50;;;;;;6155673;23;20418;-76
2023/03/21 16:49:52;;;;;;;10.90;10.30;;;15.80;93.90;;;;;;6155555;23;20461;-76
2023/03/21 16:52:19;;;;;;;10.83;10.20;;;15.70;94.30;;;;;;6155549;23;20450;-76
2023/03/21 16:54:46;;;;;;;11.10;10.60;;;15.70;94.70;;;;;;6155114;23;20421;-74
2023/03/21 16:57:22;;;;;;;12.00;11.13;;;15.70;94.60;;;;;;6155230;23;20890;-76
2023/03/21 16:59:49;;;;;;;11.73;10.93;;;15.50;95.20;;;;;;6155647;23;20390;-74
2023/03/21 17:02:17;;;;;;;11.90;11.10;;;15.50;95.60;;;;;;6155557;23;20498;-75
2023/03/21 17:04:45;;;;;;;11.43;10.83;;;15.40;95.90;;;;;;6155513;23;20419;-75
2023/03/21 17:07:14;;;;;;;12.47;11.60;;;15.30;97.00;;;;;;6155463;23;20413;-75
2023/03/21 17:09:42;;;;;;;13.30;12.50;;;15.30;97.30;;;;;;6154786;23;20446;-76
2023/03/21 17:12:12;;;;;;;13.00;12.30;;;15.30;97.30;;;;;;6155114;23;20433;-75
2023/03/21 17:14:39;;;;;;;11.70;11.10;;;15.20;97.90;;;;;;6155070;23;20414;-76
2023/03/21 17:17:06;;;;;;;12.33;11.30;;;15.20;98.60;;;;;;6155217;23;20429;-75
2023/03/21 17:19:34;;;;;;;11.87;11.00;;;15.20;99.10;;;;;;6155353;23;20866;-75
2023/03/21 17:22:01;;;;;;;12.03;11.03;;;15.10;99.00;;;;;;6155187;23;20473;-75
2023/03/21 17:24:27;;;;;;;11.33;10.63;;;15.10;99.10;;;;;;6154976;23;20437;-75
2023/03/21 17:26:54;;;;;;;12.27;11.50;;;15.00;99.60;;;;;;6155215;23;20466;-76
2023/03/21 17:29:21;;;;;;;11.37;10.60;;;14.90;99.90;;;;;;6154679;23;20469;-75
2023/03/21 17:31:49;;;;;;;11.57;10.67;;;14.90;99.90;;;;;;6154889;23;20796;-75
2023/03/21 17:34:17;;;;;;;11.23;10.37;;;14.90;99.90;;;;;;6155120;23;20414;-75
2023/03/21 17:36:47;;;;;;;12.00;11.20;;;14.90;99.90;;;;;;6155235;23;20473;-75
2023/03/21 17:39:18;;;;;;;10.47;9.77;;;14.90;99.90;;;;;;6155233;23;20398;-75
2023/03/21 17:41:45;;;;;;;10.70;10.10;;;14.80;99.90;;;;;;6155219;23;20390;-75
2023/03/21 17:44:11;;;;;;;12.03;11.23;;;14.70;99.90;;;;;;6155069;23;20415;-74
2023/03/21 17:46:38;;;;;;;10.63;10.00;;;14.70;99.90;;;;;;6154981;23;20414;-73
2023/03/21 17:49:05;;;;;;;11.07;10.20;;;14.70;99.90;;;;;;6154972;23;20411;-76
2023/03/21 17:51:32;;;;;;;12.47;11.20;;;14.70;99.90;;;;;;6154919;23;20454;-75
2023/03/21 17:54:00;;;;;;;12.00;11.40;;;14.70;99.90;;;;;;6155019;23;20411;-75
2023/03/21 17:56:29;;;;;;;13.43;12.17;;;14.70;99.90;;;;;;6154750;23;20390;-75
